sensor_id;sensor_type;location;lat;lon;timestamp;P1;durP1;ratioP1;P2;durP2;ratioP2
60436;SDS011;46289;51.992;4.498;2022-11-15T00:04:12;70.95;;;27.13;;
60436;SDS011;46289;51.992;4.498;2022-11-15T00:06:56;74.82;;;27.67;;
60436;SDS011;46289;51.992;4.498;2022-11-15T00:09:34;72.68;;;26.30;;
60436;SDS011;46289;51.992;4.498;2022-11-15T00:12:31;76.82;;;26.17;;
60436;SDS011;46289;51.992;4.498;2022-11-15T00:15:20;71.03;;;24.77;;
60436;SDS011;46289;51.992;4.498;2022-11-15T00:18:22;77.25;;;27.17;;
60436;SDS011;46289;51.992;4.498;2022-11-15T00:21:18;64.75;;;24.98;;
60436;SDS011;46289;51.992;4.498;2022-11-15T00:24:09;64.63;;;25.77;;
60436;SDS011;46289;51.992;4.498;2022-11-15T00:26:55;66.30;;;23.73;;
60436;SDS011;46289;51.992;4.498;2022-11-15T00:29:42;71.72;;;25.38;;
60436;SDS011;46289;51.992;4.498;2022-11-15T00:32:30;76.25;;;26.10;;
60436;SDS011;46289;51.992;4.498;2022-11-15T00:35:32;81.13;;;26.23;;
60436;SDS011;46289;51.992;4.498;2022-11-15T00:38:43;69.15;;;25.02;;
60436;SDS011;46289;51.992;4.498;2022-11-15T00:41:38;78.07;;;25.00;;
60436;SDS011;46289;51.992;4.498;2022-11-15T00:44:33;69.28;;;26.98;;
60436;SDS011;46289;51.992;4.498;2022-11-15T00:47:26;84.53;;;26.92;;
60436;SDS011;46289;51.992;4.498;2022-11-15T00:50:08;83.05;;;28.83;;
60436;SDS011;46289;51.992;4.498;2022-11-15T00:53:00;81.45;;;29.15;;
60436;SDS011;46289;51.992;4.498;2022-11-15T00:56:16;90.68;;;30.50;;
60436;SDS011;46289;51.992;4.498;2022-11-15T00:58:58;83.95;;;29.13;;
60436;SDS011;46289;51.992;4.498;2022-11-15T01:01:49;78.50;;;26.70;;
60436;SDS011;46289;51.992;4.498;2022-11-15T01:04:42;84.20;;;28.77;;
60436;SDS011;46289;51.992;4.498;2022-11-15T01:07:18;87.10;;;27.48;;
60436;SDS011;46289;51.992;4.498;2022-11-15T01:12:57;84.38;;;29.35;;
60436;SDS011;46289;51.992;4.498;2022-11-15T01:18:59;76.88;;;28.63;;
60436;SDS011;46289;51.992;4.498;2022-11-15T01:21:39;88.25;;;28.25;;
60436;SDS011;46289;51.992;4.498;2022-11-15T01:24:19;100.22;;;31.67;;
60436;SDS011;46289;51.992;4.498;2022-11-15T01:26:48;86.50;;;29.05;;
60436;SDS011;46289;51.992;4.498;2022-11-15T01:29:18;83.40;;;30.15;;
60436;SDS011;46289;51.992;4.498;2022-11-15T01:31:52;75.47;;;28.20;;
60436;SDS011;46289;51.992;4.498;2022-11-15T01:34:22;79.70;;;28.35;;
60436;SDS011;46289;51.992;4.498;2022-11-15T01:36:52;101.78;;;30.85;;
60436;SDS011;46289;51.992;4.498;2022-11-15T01:39:21;88.75;;;29.55;;
60436;SDS011;46289;51.992;4.498;2022-11-15T01:41:51;97.60;;;32.40;;
60436;SDS011;46289;51.992;4.498;2022-11-15T01:47:15;91.60;;;31.50;;
60436;SDS011;46289;51.992;4.498;2022-11-15T01:49:49;80.05;;;29.90;;
60436;SDS011;46289;51.992;4.498;2022-11-15T01:52:24;91.10;;;32.17;;
60436;SDS011;46289;51.992;4.498;2022-11-15T01:54:56;88.75;;;30.75;;
60436;SDS011;46289;51.992;4.498;2022-11-15T01:57:29;88.35;;;30.10;;
60436;SDS011;46289;51.992;4.498;2022-11-15T01:59:59;88.95;;;31.30;;
60436;SDS011;46289;51.992;4.498;2022-11-15T02:02:32;92.80;;;30.25;;
60436;SDS011;46289;51.992;4.498;2022-11-15T02:05:06;100.10;;;36.67;;
60436;SDS011;46289;51.992;4.498;2022-11-15T02:07:36;88.38;;;31.42;;
60436;SDS011;46289;51.992;4.498;2022-11-15T02:10:07;92.35;;;32.75;;
60436;SDS011;46289;51.992;4.498;2022-11-15T02:12:38;91.20;;;31.30;;
60436;SDS011;46289;51.992;4.498;2022-11-15T02:15:09;92.05;;;33.90;;
60436;SDS011;46289;51.992;4.498;2022-11-15T02:17:48;78.90;;;31.45;;
60436;SDS011;46289;51.992;4.498;2022-11-15T02:20:41;93.93;;;32.70;;
60436;SDS011;46289;51.992;4.498;2022-11-15T02:29:10;82.40;;;30.80;;
60436;SDS011;46289;51.992;4.498;2022-11-15T02:31:47;96.18;;;34.15;;
60436;SDS011;46289;51.992;4.498;2022-11-15T02:34:22;88.93;;;30.25;;
60436;SDS011;46289;51.992;4.498;2022-11-15T02:37:03;104.55;;;35.70;;
60436;SDS011;46289;51.992;4.498;2022-11-15T02:39:41;90.85;;;31.55;;
60436;SDS011;46289;51.992;4.498;2022-11-15T02:42:20;91.85;;;30.02;;
60436;SDS011;46289;51.992;4.498;2022-11-15T02:45:08;89.47;;;31.02;;
60436;SDS011;46289;51.992;4.498;2022-11-15T02:47:45;97.68;;;31.67;;
60436;SDS011;46289;51.992;4.498;2022-11-15T02:50:20;82.30;;;30.90;;
60436;SDS011;46289;51.992;4.498;2022-11-15T02:52:53;80.68;;;30.65;;
60436;SDS011;46289;51.992;4.498;2022-11-15T02:55:26;86.93;;;31.48;;
60436;SDS011;46289;51.992;4.498;2022-11-15T02:58:04;91.70;;;34.83;;
60436;SDS011;46289;51.992;4.498;2022-11-15T03:00:46;70.68;;;29.55;;
60436;SDS011;46289;51.992;4.498;2022-11-15T03:03:38;69.78;;;28.10;;
60436;SDS011;46289;51.992;4.498;2022-11-15T03:06:20;80.22;;;30.25;;
60436;SDS011;46289;51.992;4.498;2022-11-15T03:08:59;76.63;;;29.40;;
60436;SDS011;46289;51.992;4.498;2022-11-15T03:11:33;84.60;;;32.58;;
60436;SDS011;46289;51.992;4.498;2022-11-15T03:14:08;79.55;;;30.08;;
60436;SDS011;46289;51.992;4.498;2022-11-15T03:16:47;72.15;;;27.15;;
60436;SDS011;46289;51.992;4.498;2022-11-15T03:19:28;71.75;;;28.17;;
60436;SDS011;46289;51.992;4.498;2022-11-15T03:22:03;68.07;;;28.65;;
60436;SDS011;46289;51.992;4.498;2022-11-15T03:24:36;68.55;;;30.15;;
60436;SDS011;46289;51.992;4.498;2022-11-15T03:27:07;70.80;;;27.58;;
60436;SDS011;46289;51.992;4.498;2022-11-15T03:29:39;69.93;;;27.70;;
60436;SDS011;46289;51.992;4.498;2022-11-15T03:32:12;60.05;;;26.08;;
60436;SDS011;46289;51.992;4.498;2022-11-15T03:34:49;59.75;;;24.88;;
60436;SDS011;46289;51.992;4.498;2022-11-15T03:37:24;54.95;;;24.98;;
60436;SDS011;46289;51.992;4.498;2022-11-15T03:39:59;55.80;;;23.25;;
60436;SDS011;46289;51.992;4.498;2022-11-15T03:42:30;60.75;;;26.52;;
60436;SDS011;46289;51.992;4.498;2022-11-15T03:45:06;51.03;;;23.70;;
60436;SDS011;46289;51.992;4.498;2022-11-15T03:47:45;57.90;;;22.25;;
60436;SDS011;46289;51.992;4.498;2022-11-15T03:50:21;49.30;;;23.52;;
60436;SDS011;46289;51.992;4.498;2022-11-15T03:52:53;48.60;;;21.25;;
60436;SDS011;46289;51.992;4.498;2022-11-15T03:55:23;53.50;;;23.17;;
60436;SDS011;46289;51.992;4.498;2022-11-15T03:57:54;52.83;;;20.83;;
60436;SDS011;46289;51.992;4.498;2022-11-15T04:00:28;47.15;;;20.75;;
60436;SDS011;46289;51.992;4.498;2022-11-15T04:03:11;51.50;;;20.93;;
60436;SDS011;46289;51.992;4.498;2022-11-15T04:05:55;43.42;;;18.75;;
60436;SDS011;46289;51.992;4.498;2022-11-15T04:08:31;44.15;;;20.13;;
60436;SDS011;46289;51.992;4.498;2022-11-15T04:11:18;44.15;;;19.88;;
60436;SDS011;46289;51.992;4.498;2022-11-15T04:14:00;45.17;;;18.15;;
60436;SDS011;46289;51.992;4.498;2022-11-15T04:16:40;40.30;;;17.63;;
60436;SDS011;46289;51.992;4.498;2022-11-15T04:19:15;40.03;;;17.58;;
60436;SDS011;46289;51.992;4.498;2022-11-15T04:22:08;39.42;;;17.10;;
60436;SDS011;46289;51.992;4.498;2022-11-15T04:25:03;39.13;;;16.25;;
60436;SDS011;46289;51.992;4.498;2022-11-15T04:28:00;35.88;;;16.92;;
60436;SDS011;46289;51.992;4.498;2022-11-15T04:30:40;38.47;;;16.48;;
60436;SDS011;46289;51.992;4.498;2022-11-15T04:33:29;35.47;;;16.17;;
60436;SDS011;46289;51.992;4.498;2022-11-15T04:36:18;28.98;;;16.27;;
60436;SDS011;46289;51.992;4.498;2022-11-15T04:39:09;35.90;;;16.17;;
60436;SDS011;46289;51.992;4.498;2022-11-15T04:41:53;32.28;;;15.77;;
60436;SDS011;46289;51.992;4.498;2022-11-15T04:44:34;35.15;;;15.20;;
60436;SDS011;46289;51.992;4.498;2022-11-15T04:47:13;35.75;;;16.58;;
60436;SDS011;46289;51.992;4.498;2022-11-15T04:50:00;33.33;;;14.90;;
60436;SDS011;46289;51.992;4.498;2022-11-15T04:52:57;32.17;;;14.40;;
60436;SDS011;46289;51.992;4.498;2022-11-15T04:55:33;33.05;;;15.88;;
60436;SDS011;46289;51.992;4.498;2022-11-15T04:58:06;31.58;;;15.48;;
60436;SDS011;46289;51.992;4.498;2022-11-15T05:00:58;34.03;;;15.52;;
60436;SDS011;46289;51.992;4.498;2022-11-15T05:03:46;36.40;;;14.95;;
60436;SDS011;46289;51.992;4.498;2022-11-15T05:06:42;37.05;;;15.32;;
60436;SDS011;46289;51.992;4.498;2022-11-15T05:09:24;37.25;;;16.05;;
60436;SDS011;46289;51.992;4.498;2022-11-15T05:12:11;34.95;;;15.13;;
60436;SDS011;46289;51.992;4.498;2022-11-15T05:15:09;29.08;;;13.68;;
60436;SDS011;46289;51.992;4.498;2022-11-15T05:17:51;34.50;;;14.63;;
60436;SDS011;46289;51.992;4.498;2022-11-15T05:20:48;27.77;;;13.70;;
60436;SDS011;46289;51.992;4.498;2022-11-15T05:26:17;30.10;;;13.57;;
60436;SDS011;46289;51.992;4.498;2022-11-15T05:29:10;26.38;;;12.82;;
60436;SDS011;46289;51.992;4.498;2022-11-15T05:31:54;28.55;;;13.95;;
60436;SDS011;46289;51.992;4.498;2022-11-15T05:34:52;32.95;;;14.32;;
60436;SDS011;46289;51.992;4.498;2022-11-15T05:37:32;31.23;;;13.48;;
60436;SDS011;46289;51.992;4.498;2022-11-15T05:40:23;24.73;;;13.68;;
60436;SDS011;46289;51.992;4.498;2022-11-15T05:43:05;34.40;;;13.40;;
60436;SDS011;46289;51.992;4.498;2022-11-15T05:46:01;22.38;;;13.52;;
60436;SDS011;46289;51.992;4.498;2022-11-15T05:51:50;31.80;;;12.70;;
60436;SDS011;46289;51.992;4.498;2022-11-15T05:54:50;22.60;;;10.70;;
60436;SDS011;46289;51.992;4.498;2022-11-15T05:57:43;21.85;;;10.70;;
60436;SDS011;46289;51.992;4.498;2022-11-15T06:00:24;23.35;;;10.90;;
60436;SDS011;46289;51.992;4.498;2022-11-15T06:03:16;19.33;;;9.70;;
60436;SDS011;46289;51.992;4.498;2022-11-15T06:06:02;26.92;;;10.73;;
60436;SDS011;46289;51.992;4.498;2022-11-15T06:08:59;16.55;;;9.18;;
60436;SDS011;46289;51.992;4.498;2022-11-15T06:11:40;17.83;;;8.65;;
60436;SDS011;46289;51.992;4.498;2022-11-15T06:14:19;19.10;;;8.13;;
60436;SDS011;46289;51.992;4.498;2022-11-15T06:17:07;18.67;;;7.93;;
60436;SDS011;46289;51.992;4.498;2022-11-15T06:19:58;21.13;;;8.98;;
60436;SDS011;46289;51.992;4.498;2022-11-15T06:25:38;23.40;;;8.88;;
60436;SDS011;46289;51.992;4.498;2022-11-15T06:28:33;20.25;;;7.78;;
60436;SDS011;46289;51.992;4.498;2022-11-15T06:31:08;20.20;;;7.68;;
60436;SDS011;46289;51.992;4.498;2022-11-15T06:34:03;16.60;;;7.70;;
60436;SDS011;46289;51.992;4.498;2022-11-15T06:36:38;16.45;;;8.07;;
60436;SDS011;46289;51.992;4.498;2022-11-15T06:39:08;18.15;;;7.47;;
60436;SDS011;46289;51.992;4.498;2022-11-15T06:41:48;17.40;;;8.32;;
60436;SDS011;46289;51.992;4.498;2022-11-15T06:44:25;13.88;;;7.07;;
60436;SDS011;46289;51.992;4.498;2022-11-15T06:47:07;16.10;;;7.93;;
60436;SDS011;46289;51.992;4.498;2022-11-15T06:49:43;21.65;;;8.73;;
60436;SDS011;46289;51.992;4.498;2022-11-15T06:52:20;17.88;;;6.95;;
60436;SDS011;46289;51.992;4.498;2022-11-15T06:54:51;14.07;;;6.95;;
60436;SDS011;46289;51.992;4.498;2022-11-15T06:57:45;14.77;;;6.78;;
60436;SDS011;46289;51.992;4.498;2022-11-15T07:00:28;15.02;;;6.28;;
60436;SDS011;46289;51.992;4.498;2022-11-15T07:03:16;19.17;;;7.15;;
60436;SDS011;46289;51.992;4.498;2022-11-15T07:08:45;14.95;;;6.75;;
60436;SDS011;46289;51.992;4.498;2022-11-15T07:11:22;21.80;;;7.07;;
60436;SDS011;46289;51.992;4.498;2022-11-15T07:13:56;18.52;;;7.18;;
60436;SDS011;46289;51.992;4.498;2022-11-15T07:16:43;15.32;;;6.85;;
60436;SDS011;46289;51.992;4.498;2022-11-15T07:19:24;14.88;;;5.93;;
60436;SDS011;46289;51.992;4.498;2022-11-15T07:21:57;13.88;;;5.95;;
60436;SDS011;46289;51.992;4.498;2022-11-15T07:24:32;16.38;;;6.95;;
60436;SDS011;46289;51.992;4.498;2022-11-15T07:27:24;16.17;;;6.68;;
60436;SDS011;46289;51.992;4.498;2022-11-15T07:29:59;11.55;;;5.35;;
60436;SDS011;46289;51.992;4.498;2022-11-15T07:32:30;11.05;;;5.65;;
60436;SDS011;46289;51.992;4.498;2022-11-15T07:35:23;14.30;;;6.32;;
60436;SDS011;46289;51.992;4.498;2022-11-15T07:38:09;16.88;;;6.05;;
60436;SDS011;46289;51.992;4.498;2022-11-15T07:40:55;22.05;;;7.20;;
60436;SDS011;46289;51.992;4.498;2022-11-15T07:43:37;17.10;;;6.25;;
60436;SDS011;46289;51.992;4.498;2022-11-15T07:46:14;12.68;;;6.25;;
60436;SDS011;46289;51.992;4.498;2022-11-15T07:49:00;14.13;;;5.88;;
60436;SDS011;46289;51.992;4.498;2022-11-15T07:54:50;15.70;;;5.97;;
60436;SDS011;46289;51.992;4.498;2022-11-15T07:57:30;13.27;;;6.05;;
60436;SDS011;46289;51.992;4.498;2022-11-15T08:00:14;12.90;;;6.25;;
60436;SDS011;46289;51.992;4.498;2022-11-15T08:05:39;12.45;;;6.13;;
60436;SDS011;46289;51.992;4.498;2022-11-15T08:08:12;14.30;;;7.47;;
60436;SDS011;46289;51.992;4.498;2022-11-15T08:11:03;13.25;;;6.18;;
60436;SDS011;46289;51.992;4.498;2022-11-15T08:13:47;15.43;;;6.22;;
60436;SDS011;46289;51.992;4.498;2022-11-15T08:16:17;14.80;;;6.63;;
60436;SDS011;46289;51.992;4.498;2022-11-15T08:18:47;18.58;;;7.38;;
60436;SDS011;46289;51.992;4.498;2022-11-15T08:21:17;13.77;;;6.55;;
60436;SDS011;46289;51.992;4.498;2022-11-15T08:23:49;15.80;;;7.03;;
60436;SDS011;46289;51.992;4.498;2022-11-15T08:26:19;17.42;;;7.47;;
60436;SDS011;46289;51.992;4.498;2022-11-15T08:28:53;23.92;;;7.63;;
60436;SDS011;46289;51.992;4.498;2022-11-15T08:31:23;17.05;;;8.02;;
60436;SDS011;46289;51.992;4.498;2022-11-15T08:33:53;21.48;;;8.35;;
60436;SDS011;46289;51.992;4.498;2022-11-15T08:36:22;17.55;;;7.78;;
60436;SDS011;46289;51.992;4.498;2022-11-15T08:38:56;17.48;;;7.63;;
60436;SDS011;46289;51.992;4.498;2022-11-15T08:41:27;19.23;;;8.57;;
60436;SDS011;46289;51.992;4.498;2022-11-15T08:44:02;19.80;;;8.10;;
60436;SDS011;46289;51.992;4.498;2022-11-15T08:46:32;15.15;;;6.75;;
60436;SDS011;46289;51.992;4.498;2022-11-15T08:49:02;17.05;;;8.20;;
60436;SDS011;46289;51.992;4.498;2022-11-15T08:51:32;18.67;;;8.10;;
60436;SDS011;46289;51.992;4.498;2022-11-15T08:54:02;16.67;;;7.28;;
60436;SDS011;46289;51.992;4.498;2022-11-15T08:56:33;17.75;;;7.93;;
60436;SDS011;46289;51.992;4.498;2022-11-15T08:59:06;15.88;;;7.13;;
60436;SDS011;46289;51.992;4.498;2022-11-15T09:01:36;16.27;;;7.43;;
60436;SDS011;46289;51.992;4.498;2022-11-15T09:04:06;16.35;;;7.15;;
60436;SDS011;46289;51.992;4.498;2022-11-15T09:06:38;14.15;;;6.57;;
60436;SDS011;46289;51.992;4.498;2022-11-15T09:09:08;14.43;;;6.32;;
60436;SDS011;46289;51.992;4.498;2022-11-15T09:11:38;12.88;;;6.85;;
60436;SDS011;46289;51.992;4.498;2022-11-15T09:14:10;14.27;;;5.80;;
60436;SDS011;46289;51.992;4.498;2022-11-15T09:16:41;14.13;;;6.32;;
60436;SDS011;46289;51.992;4.498;2022-11-15T09:19:11;18.58;;;6.50;;
60436;SDS011;46289;51.992;4.498;2022-11-15T09:21:48;10.85;;;5.57;;
60436;SDS011;46289;51.992;4.498;2022-11-15T09:24:18;14.00;;;6.70;;
60436;SDS011;46289;51.992;4.498;2022-11-15T09:26:49;18.02;;;6.75;;
60436;SDS011;46289;51.992;4.498;2022-11-15T09:29:25;17.52;;;6.75;;
60436;SDS011;46289;51.992;4.498;2022-11-15T09:31:55;12.93;;;6.32;;
60436;SDS011;46289;51.992;4.498;2022-11-15T09:34:26;16.00;;;6.32;;
60436;SDS011;46289;51.992;4.498;2022-11-15T09:36:59;15.85;;;6.10;;
60436;SDS011;46289;51.992;4.498;2022-11-15T09:42:12;12.25;;;6.40;;
60436;SDS011;46289;51.992;4.498;2022-11-15T09:44:59;15.85;;;6.07;;
60436;SDS011;46289;51.992;4.498;2022-11-15T09:47:59;12.05;;;5.72;;
60436;SDS011;46289;51.992;4.498;2022-11-15T09:50:45;12.00;;;4.95;;
60436;SDS011;46289;51.992;4.498;2022-11-15T09:53:19;12.82;;;5.80;;
60436;SDS011;46289;51.992;4.498;2022-11-15T09:56:15;12.02;;;5.43;;
60436;SDS011;46289;51.992;4.498;2022-11-15T09:58:51;12.23;;;5.35;;
60436;SDS011;46289;51.992;4.498;2022-11-15T10:01:33;10.75;;;4.90;;
60436;SDS011;46289;51.992;4.498;2022-11-15T10:04:10;8.73;;;4.40;;
60436;SDS011;46289;51.992;4.498;2022-11-15T10:06:40;9.48;;;4.28;;
60436;SDS011;46289;51.992;4.498;2022-11-15T10:09:18;9.75;;;4.63;;
60436;SDS011;46289;51.992;4.498;2022-11-15T10:11:55;12.30;;;4.63;;
60436;SDS011;46289;51.992;4.498;2022-11-15T10:14:33;10.63;;;4.45;;
60436;SDS011;46289;51.992;4.498;2022-11-15T10:17:09;8.93;;;3.95;;
60436;SDS011;46289;51.992;4.498;2022-11-15T10:19:58;9.43;;;4.35;;
60436;SDS011;46289;51.992;4.498;2022-11-15T10:22:38;12.05;;;4.82;;
60436;SDS011;46289;51.992;4.498;2022-11-15T10:25:19;10.95;;;4.53;;
60436;SDS011;46289;51.992;4.498;2022-11-15T10:27:53;13.23;;;4.22;;
60436;SDS011;46289;51.992;4.498;2022-11-15T10:30:31;13.05;;;4.78;;
60436;SDS011;46289;51.992;4.498;2022-11-15T10:36:24;15.63;;;4.32;;
60436;SDS011;46289;51.992;4.498;2022-11-15T10:38:57;12.95;;;4.90;;
60436;SDS011;46289;51.992;4.498;2022-11-15T10:41:37;10.73;;;4.03;;
60436;SDS011;46289;51.992;4.498;2022-11-15T10:44:11;13.10;;;4.80;;
60436;SDS011;46289;51.992;4.498;2022-11-15T10:53:03;10.02;;;3.90;;
60436;SDS011;46289;51.992;4.498;2022-11-15T10:55:45;11.80;;;4.47;;
60436;SDS011;46289;51.992;4.498;2022-11-15T10:58:20;8.00;;;3.65;;
60436;SDS011;46289;51.992;4.498;2022-11-15T11:01:10;10.38;;;4.32;;
60436;SDS011;46289;51.992;4.498;2022-11-15T11:03:57;8.45;;;3.60;;
60436;SDS011;46289;51.992;4.498;2022-11-15T11:06:50;8.40;;;3.78;;
60436;SDS011;46289;51.992;4.498;2022-11-15T11:09:48;7.57;;;3.67;;
60436;SDS011;46289;51.992;4.498;2022-11-15T11:13:04;11.15;;;3.42;;
60436;SDS011;46289;51.992;4.498;2022-11-15T11:15:47;9.32;;;3.38;;
60436;SDS011;46289;51.992;4.498;2022-11-15T11:18:34;7.72;;;3.30;;
60436;SDS011;46289;51.992;4.498;2022-11-15T11:21:31;8.00;;;3.17;;
60436;SDS011;46289;51.992;4.498;2022-11-15T11:24:22;9.40;;;3.13;;
60436;SDS011;46289;51.992;4.498;2022-11-15T11:27:16;6.55;;;3.22;;
60436;SDS011;46289;51.992;4.498;2022-11-15T11:30:01;7.32;;;3.63;;
60436;SDS011;46289;51.992;4.498;2022-11-15T11:33:03;9.98;;;2.90;;
60436;SDS011;46289;51.992;4.498;2022-11-15T11:35:50;7.82;;;2.78;;
60436;SDS011;46289;51.992;4.498;2022-11-15T11:38:38;7.82;;;2.83;;
60436;SDS011;46289;51.992;4.498;2022-11-15T11:41:37;7.20;;;2.85;;
60436;SDS011;46289;51.992;4.498;2022-11-15T11:44:28;5.15;;;2.58;;
60436;SDS011;46289;51.992;4.498;2022-11-15T11:47:11;8.73;;;3.25;;
60436;SDS011;46289;51.992;4.498;2022-11-15T11:49:48;7.55;;;2.55;;
60436;SDS011;46289;51.992;4.498;2022-11-15T11:52:23;7.90;;;2.75;;
60436;SDS011;46289;51.992;4.498;2022-11-15T11:55:03;9.98;;;2.90;;
60436;SDS011;46289;51.992;4.498;2022-11-15T11:57:49;9.18;;;2.83;;
60436;SDS011;46289;51.992;4.498;2022-11-15T12:00:37;8.23;;;3.83;;
60436;SDS011;46289;51.992;4.498;2022-11-15T12:03:11;8.93;;;2.70;;
60436;SDS011;46289;51.992;4.498;2022-11-15T12:05:48;5.38;;;2.40;;
60436;SDS011;46289;51.992;4.498;2022-11-15T12:08:25;8.13;;;2.58;;
60436;SDS011;46289;51.992;4.498;2022-11-15T12:11:04;5.75;;;2.45;;
60436;SDS011;46289;51.992;4.498;2022-11-15T12:13:43;6.10;;;2.22;;
60436;SDS011;46289;51.992;4.498;2022-11-15T12:16:19;7.68;;;2.67;;
60436;SDS011;46289;51.992;4.498;2022-11-15T12:18:56;5.50;;;2.50;;
60436;SDS011;46289;51.992;4.498;2022-11-15T12:21:32;8.27;;;2.47;;
60436;SDS011;46289;51.992;4.498;2022-11-15T12:24:06;8.32;;;2.88;;
60436;SDS011;46289;51.992;4.498;2022-11-15T12:26:42;5.93;;;2.22;;
60436;SDS011;46289;51.992;4.498;2022-11-15T12:29:23;7.57;;;2.30;;
60436;SDS011;46289;51.992;4.498;2022-11-15T12:32:00;8.18;;;2.28;;
60436;SDS011;46289;51.992;4.498;2022-11-15T12:34:35;5.70;;;2.70;;
60436;SDS011;46289;51.992;4.498;2022-11-15T12:40:22;6.95;;;2.35;;
60436;SDS011;46289;51.992;4.498;2022-11-15T12:42:58;4.75;;;2.10;;
60436;SDS011;46289;51.992;4.498;2022-11-15T12:45:48;6.57;;;2.30;;
60436;SDS011;46289;51.992;4.498;2022-11-15T12:57:58;5.95;;;2.08;;
60436;SDS011;46289;51.992;4.498;2022-11-15T13:16:19;6.10;;;1.88;;
60436;SDS011;46289;51.992;4.498;2022-11-15T13:19:26;6.00;;;2.38;;
60436;SDS011;46289;51.992;4.498;2022-11-15T13:22:59;4.40;;;1.90;;
60436;SDS011;46289;51.992;4.498;2022-11-15T13:26:42;4.72;;;1.90;;
60436;SDS011;46289;51.992;4.498;2022-11-15T13:29:56;3.40;;;1.60;;
60436;SDS011;46289;51.992;4.498;2022-11-15T13:32:45;4.68;;;1.80;;
60436;SDS011;46289;51.992;4.498;2022-11-15T13:35:18;3.63;;;1.60;;
60436;SDS011;46289;51.992;4.498;2022-11-15T13:37:51;14.02;;;2.75;;
60436;SDS011;46289;51.992;4.498;2022-11-15T13:40:24;6.35;;;1.75;;
60436;SDS011;46289;51.992;4.498;2022-11-15T13:42:59;8.02;;;2.72;;
60436;SDS011;46289;51.992;4.498;2022-11-15T13:45:43;4.63;;;1.73;;
60436;SDS011;46289;51.992;4.498;2022-11-15T13:48:12;6.72;;;1.65;;
60436;SDS011;46289;51.992;4.498;2022-11-15T13:50:42;5.15;;;1.73;;
60436;SDS011;46289;51.992;4.498;2022-11-15T13:53:12;4.63;;;2.00;;
60436;SDS011;46289;51.992;4.498;2022-11-15T13:55:41;6.30;;;1.77;;
60436;SDS011;46289;51.992;4.498;2022-11-15T13:58:13;5.38;;;2.10;;
60436;SDS011;46289;51.992;4.498;2022-11-15T14:00:49;6.05;;;2.60;;
60436;SDS011;46289;51.992;4.498;2022-11-15T14:03:30;7.13;;;1.98;;
60436;SDS011;46289;51.992;4.498;2022-11-15T14:06:06;5.90;;;2.33;;
60436;SDS011;46289;51.992;4.498;2022-11-15T14:08:38;4.43;;;2.00;;
60436;SDS011;46289;51.992;4.498;2022-11-15T14:11:09;4.70;;;1.98;;
60436;SDS011;46289;51.992;4.498;2022-11-15T14:16:44;7.55;;;2.03;;
60436;SDS011;46289;51.992;4.498;2022-11-15T14:22:08;7.68;;;2.40;;
60436;SDS011;46289;51.992;4.498;2022-11-15T14:25:03;5.60;;;2.47;;
60436;SDS011;46289;51.992;4.498;2022-11-15T14:27:35;6.22;;;1.80;;
60436;SDS011;46289;51.992;4.498;2022-11-15T14:30:09;4.25;;;1.90;;
60436;SDS011;46289;51.992;4.498;2022-11-15T14:32:43;6.45;;;3.08;;
60436;SDS011;46289;51.992;4.498;2022-11-15T14:35:16;6.88;;;2.40;;
60436;SDS011;46289;51.992;4.498;2022-11-15T14:40:19;5.20;;;2.50;;
60436;SDS011;46289;51.992;4.498;2022-11-15T14:42:50;4.85;;;2.03;;
60436;SDS011;46289;51.992;4.498;2022-11-15T14:45:23;7.57;;;2.13;;
60436;SDS011;46289;51.992;4.498;2022-11-15T14:47:52;8.15;;;2.83;;
60436;SDS011;46289;51.992;4.498;2022-11-15T14:50:22;6.90;;;2.22;;
60436;SDS011;46289;51.992;4.498;2022-11-15T14:52:52;4.72;;;1.90;;
60436;SDS011;46289;51.992;4.498;2022-11-15T14:55:24;5.32;;;2.03;;
60436;SDS011;46289;51.992;4.498;2022-11-15T14:57:57;5.85;;;1.90;;
60436;SDS011;46289;51.992;4.498;2022-11-15T15:00:31;4.28;;;1.88;;
60436;SDS011;46289;51.992;4.498;2022-11-15T15:03:01;3.40;;;2.00;;
60436;SDS011;46289;51.992;4.498;2022-11-15T15:05:32;4.35;;;2.08;;
60436;SDS011;46289;51.992;4.498;2022-11-15T15:08:05;4.10;;;1.98;;
60436;SDS011;46289;51.992;4.498;2022-11-15T15:10:36;5.50;;;2.15;;
60436;SDS011;46289;51.992;4.498;2022-11-15T15:13:10;6.10;;;2.20;;
60436;SDS011;46289;51.992;4.498;2022-11-15T15:15:48;3.35;;;1.60;;
60436;SDS011;46289;51.992;4.498;2022-11-15T15:18:19;4.20;;;2.22;;
60436;SDS011;46289;51.992;4.498;2022-11-15T15:20:58;5.97;;;2.13;;
60436;SDS011;46289;51.992;4.498;2022-11-15T15:23:36;7.20;;;2.10;;
60436;SDS011;46289;51.992;4.498;2022-11-15T15:26:06;5.63;;;2.60;;
60436;SDS011;46289;51.992;4.498;2022-11-15T15:28:37;6.70;;;2.50;;
60436;SDS011;46289;51.992;4.498;2022-11-15T15:31:10;4.88;;;1.80;;
60436;SDS011;46289;51.992;4.498;2022-11-15T15:33:40;5.43;;;1.80;;
60436;SDS011;46289;51.992;4.498;2022-11-15T15:36:10;5.15;;;2.40;;
60436;SDS011;46289;51.992;4.498;2022-11-15T15:38:40;7.53;;;2.30;;
60436;SDS011;46289;51.992;4.498;2022-11-15T15:41:10;4.25;;;2.35;;
60436;SDS011;46289;51.992;4.498;2022-11-15T15:43:40;5.07;;;2.28;;
60436;SDS011;46289;51.992;4.498;2022-11-15T15:46:13;5.28;;;2.15;;
60436;SDS011;46289;51.992;4.498;2022-11-15T15:51:13;4.68;;;2.30;;
60436;SDS011;46289;51.992;4.498;2022-11-15T15:53:46;4.72;;;2.13;;
60436;SDS011;46289;51.992;4.498;2022-11-15T15:56:17;9.65;;;2.80;;
60436;SDS011;46289;51.992;4.498;2022-11-15T15:58:47;4.10;;;2.17;;
60436;SDS011;46289;51.992;4.498;2022-11-15T16:01:21;5.22;;;2.70;;
60436;SDS011;46289;51.992;4.498;2022-11-15T16:03:51;5.38;;;2.53;;
60436;SDS011;46289;51.992;4.498;2022-11-15T16:06:36;8.98;;;3.17;;
60436;SDS011;46289;51.992;4.498;2022-11-15T16:09:11;5.10;;;2.60;;
60436;SDS011;46289;51.992;4.498;2022-11-15T16:11:44;7.13;;;2.55;;
60436;SDS011;46289;51.992;4.498;2022-11-15T16:14:14;3.83;;;2.80;;
60436;SDS011;46289;51.992;4.498;2022-11-15T16:16:47;11.30;;;3.55;;
60436;SDS011;46289;51.992;4.498;2022-11-15T16:19:16;9.68;;;4.78;;
60436;SDS011;46289;51.992;4.498;2022-11-15T16:21:46;8.35;;;3.00;;
60436;SDS011;46289;51.992;4.498;2022-11-15T16:24:15;6.50;;;2.97;;
60436;SDS011;46289;51.992;4.498;2022-11-15T16:26:45;7.97;;;2.97;;
60436;SDS011;46289;51.992;4.498;2022-11-15T16:29:16;7.90;;;3.67;;
60436;SDS011;46289;51.992;4.498;2022-11-15T16:31:49;15.90;;;8.85;;
60436;SDS011;46289;51.992;4.498;2022-11-15T16:34:18;9.95;;;4.40;;
60436;SDS011;46289;51.992;4.498;2022-11-15T16:36:48;8.20;;;4.20;;
60436;SDS011;46289;51.992;4.498;2022-11-15T16:39:18;9.55;;;3.95;;
60436;SDS011;46289;51.992;4.498;2022-11-15T16:41:48;16.58;;;7.13;;
60436;SDS011;46289;51.992;4.498;2022-11-15T16:44:18;35.83;;;17.38;;
60436;SDS011;46289;51.992;4.498;2022-11-15T16:46:51;21.10;;;11.45;;
60436;SDS011;46289;51.992;4.498;2022-11-15T16:49:21;14.25;;;8.48;;
60436;SDS011;46289;51.992;4.498;2022-11-15T16:51:50;7.65;;;3.72;;
60436;SDS011;46289;51.992;4.498;2022-11-15T16:54:20;10.25;;;4.32;;
60436;SDS011;46289;51.992;4.498;2022-11-15T16:56:49;12.52;;;5.18;;
60436;SDS011;46289;51.992;4.498;2022-11-15T16:59:19;8.20;;;4.53;;
60436;SDS011;46289;51.992;4.498;2022-11-15T17:01:51;9.93;;;4.22;;
60436;SDS011;46289;51.992;4.498;2022-11-15T17:04:20;7.45;;;3.38;;
60436;SDS011;46289;51.992;4.498;2022-11-15T17:06:53;8.07;;;3.88;;
60436;SDS011;46289;51.992;4.498;2022-11-15T17:09:22;6.90;;;3.40;;
60436;SDS011;46289;51.992;4.498;2022-11-15T17:11:52;5.90;;;3.45;;